Hoquiam, WA

7:27 PM PDT on August 24, 2016 (GMT -0700)
Bowerman

Weather History for KHQM - February, 2014

Change the Weather History Date:

Monday, February 24, 2014

  Actual Average Record
Temperature  
Mean Temperature 42 °F 44 °F  
Max Temperature 44 °F 51 °F 63 °F (1970)
Min Temperature 39 °F 38 °F 26 °F (2006)
Degree Days  
Heating Degree Days 23 21  
Month to date heating degree days 595 514  
Cooling Degree Days 0 0  
Month to date cooling degree days 0 0  
Year to date cooling degree days 0 0  
Moisture  
Dew Point 40 °F    
Average Humidity 95    
Maximum Humidity 100    
Minimum Humidity 89    
Precipitation  
Precipitation 0.48 in 0.24 in 1.56 in (1979)
Month to date precipitation 8.02 6.24  
Year to date precipitation 14.52 16.57  
Sea Level Pressure  
Sea Level Pressure 30.00 in    
Wind  
Wind Speed 12 mph (NE)    
Max Wind Speed 18 mph    
Max Gust Speed 23 mph    
Visibility 4 miles    
Events Rain    
T = Trace of Precipitation, MM = Missing Value Source: NWS Daily Summary

Daily Weather History Graph

Daily Weather History Graph

Search for Another Location

Airport or City:

Trip Planner

Search our weather history database for the weather conditions in past years. The results will help you decide how hot, cold, wet, or windy it might be!

Date:

Astronomy

Feb. 24, 2014 Rise Set
Actual Time 7:04 AM PST 5:54 PM PST
Civil Twilight 6:33 AM PST 6:24 PM PST
Nautical Twilight 5:58 AM PST 7:00 PM PST
Astronomical Twilight 5:23 AM PST 7:35 PM PST
Moon 3:20 AM PST (2/24) 12:49 PM PST (2/24)
Length of Visible Light 11h 51m
Length of Day
10h 49m
Waning Crescent, 27% of the Moon is Illuminated
Feb 24
Waning Crescent
Mar 1
New
Mar 8
First Quarter
Mar 16
Full
Mar 23
Last Quarter

Hourly Weather History & Observations

Time (PST) Temp. Windchill Dew Point Humidity Pressure Visibility Wind Dir Wind Speed Gust Speed Precip Events Conditions
12:23 AM 41.0 °F 35.8 °F 41.0 °F 100% 29.99 in 1.8 mi ENE 8.1 mph - N/A   Overcast
12:43 AM 41.0 °F 35.2 °F 41.0 °F 100% 29.99 in 2.5 mi ENE 9.2 mph - N/A   Overcast
12:53 AM 41.0 °F 34.7 °F 39.9 °F 96% 30.00 in 4.0 mi ENE 10.4 mph - N/A   Overcast
1:00 AM 41.0 °F 35.2 °F 39.9 °F 96% 29.99 in 4.0 mi ENE 9.2 mph - N/A   Overcast
1:08 AM 41.0 °F 37.1 °F 41.0 °F 100% 29.99 in 4.0 mi ENE 5.8 mph - N/A   Overcast
1:53 AM 41.0 °F 34.3 °F 39.9 °F 96% 30.00 in 4.0 mi NE 11.5 mph - N/A   Overcast
2:11 AM 41.0 °F 33.5 °F 39.0 °F 93% 29.99 in 2.5 mi NE 13.8 mph - N/A   Overcast
2:25 AM 39.9 °F 32.1 °F 39.0 °F 97% 29.99 in 2.5 mi NE 13.8 mph - N/A   Overcast
2:36 AM 39.9 °F 31.1 °F 39.0 °F 97% 29.99 in 1.8 mi NE 17.3 mph - N/A   Overcast
2:40 AM 39.9 °F 31.4 °F 39.0 °F 97% 29.99 in 2.0 mi NE 16.1 mph - N/A   Overcast
2:53 AM 39.9 °F 32.5 °F 39.0 °F 97% 30.00 in 3.0 mi NE 12.7 mph - N/A   Overcast
3:53 AM 39.0 °F 32.8 °F 39.0 °F 100% 29.99 in 3.0 mi NE 9.2 mph - N/A   Overcast
4:08 AM 39.0 °F 31.4 °F 37.9 °F 96% 29.98 in 2.0 mi NE 12.7 mph - N/A   Overcast
4:53 AM 39.0 °F 31.0 °F 37.9 °F 96% 29.99 in 2.5 mi ENE 13.8 mph - 0.00 in Rain Light Rain
5:31 AM 39.0 °F 32.3 °F 37.9 °F 96% 29.98 in 4.0 mi NE 10.4 mph - 0.01 in   Overcast
5:53 AM 39.0 °F 32.3 °F 37.9 °F 96% 29.99 in 5.0 mi NE 10.4 mph - 0.01 in Rain Light Rain
6:37 AM 39.0 °F 30.3 °F 37.9 °F 96% 29.97 in 4.0 mi NE 16.1 mph - 0.03 in Rain Light Rain
6:53 AM 39.0 °F 31.0 °F 37.9 °F 96% 29.98 in 6.0 mi NE 13.8 mph - 0.03 in Rain Light Rain
7:53 AM 39.9 °F 32.9 °F 39.0 °F 97% 29.98 in 2.0 mi ENE 11.5 mph - 0.05 in Rain Light Rain
8:06 AM 39.9 °F 33.9 °F 39.0 °F 97% 29.98 in 3.0 mi ENE 9.2 mph - 0.01 in Rain Light Rain
8:21 AM 39.9 °F 32.5 °F 39.0 °F 97% 29.98 in 2.0 mi ENE 12.7 mph - 0.04 in Rain Rain
8:53 AM 39.9 °F 32.1 °F 39.0 °F 97% 29.99 in 2.5 mi ENE 13.8 mph - 0.12 in Rain Light Rain
9:00 AM 39.9 °F 31.8 °F 39.0 °F 97% 29.98 in 3.0 mi ENE 15.0 mph - 0.01 in Rain Light Rain
9:07 AM 39.9 °F 32.5 °F 39.0 °F 97% 29.98 in 2.5 mi ENE 12.7 mph - 0.02 in Rain Light Rain
9:26 AM 39.9 °F 33.4 °F 39.0 °F 97% 29.98 in 4.0 mi ENE 10.4 mph - 0.04 in Rain Light Rain
9:53 AM 39.9 °F 32.5 °F 39.0 °F 97% 30.00 in 5.0 mi NE 12.7 mph - 0.05 in Rain Light Rain
10:07 AM 41.0 °F 33.9 °F 39.0 °F 93% 29.99 in 1.8 mi NE 12.7 mph - 0.01 in Rain Light Rain
10:53 AM 41.0 °F 34.3 °F 39.9 °F 96% 30.00 in 2.5 mi ENE 11.5 mph - 0.06 in Rain Light Rain
11:01 AM 41.0 °F 34.7 °F 39.9 °F 96% 29.99 in 3.0 mi ENE 10.4 mph - 0.01 in Rain Light Rain
11:40 AM 42.1 °F 34.5 °F 39.9 °F 92% 30.00 in 1.8 mi NE 15.0 mph - 0.03 in Rain Light Rain
11:53 AM 42.1 °F 35.2 °F 41.0 °F 96% 30.01 in 2.0 mi NE 12.7 mph - 0.04 in Rain Light Rain
12:07 PM 42.1 °F 34.9 °F 41.0 °F 96% 30.00 in 1.8 mi ENE 13.8 mph - 0.01 in Rain Light Rain
12:20 PM 42.1 °F 34.2 °F 39.9 °F 92% 29.99 in 2.5 mi NE 16.1 mph - 0.01 in Rain Light Rain
12:27 PM 42.1 °F 34.9 °F 39.9 °F 92% 29.99 in 3.0 mi ENE 13.8 mph - 0.01 in Rain Light Rain
12:38 PM 42.1 °F 34.9 °F 41.0 °F 96% 29.99 in 2.5 mi NE 13.8 mph - 0.01 in Rain Light Rain
12:45 PM 42.1 °F 35.7 °F 41.0 °F 96% 29.99 in 3.0 mi NE 11.5 mph - 0.01 in Rain Light Rain
12:53 PM 42.1 °F 35.7 °F 41.0 °F 96% 30.00 in 4.0 mi NE 11.5 mph - 0.01 in Rain Light Rain
1:42 PM 43.0 °F 36.4 °F 41.0 °F 93% 29.98 in 2.5 mi NE 12.7 mph - 0.02 in Rain Light Rain
1:46 PM 43.0 °F 36.4 °F 41.0 °F 93% 29.99 in 3.0 mi NE 12.7 mph - 0.02 in Rain Light Rain
1:53 PM 43.0 °F 37.2 °F 41.0 °F 93% 30.00 in 3.0 mi NE 10.4 mph - 0.02 in Rain Light Rain
2:12 PM 43.0 °F 37.2 °F 41.0 °F 93% 29.99 in 1.8 mi ENE 10.4 mph - 0.02 in Rain Light Rain
2:26 PM 43.0 °F 37.7 °F 42.1 °F 97% 29.99 in 2.0 mi ENE 9.2 mph - 0.03 in Rain Light Rain
2:34 PM 43.0 °F 37.2 °F 42.1 °F 97% 29.99 in 1.8 mi ENE 10.4 mph - 0.03 in Rain Light Rain
2:53 PM 43.0 °F 37.2 °F 42.1 °F 97% 30.00 in 2.0 mi ENE 10.4 mph - 0.05 in Rain Light Rain
3:04 PM 43.0 °F 37.2 °F 42.1 °F 97% 29.99 in 1.8 mi NE 10.4 mph - 0.01 in Rain Light Rain
3:07 PM 43.0 °F 36.8 °F 42.1 °F 97% 29.99 in 2.5 mi NE 11.5 mph - 0.01 in Rain Light Rain
3:16 PM 43.0 °F 37.2 °F 42.1 °F 97% 29.99 in 3.0 mi ENE 10.4 mph - 0.02 in Rain Light Rain
3:53 PM 43.0 °F 37.2 °F 42.1 °F 97% 30.00 in 7.0 mi ENE 10.4 mph - 0.03 in Rain Light Rain
4:53 PM 43.0 °F 37.2 °F 42.1 °F 97% 30.00 in 3.0 mi ENE 10.4 mph - 0.00 in   Overcast
4:57 PM 43.0 °F 37.2 °F 42.1 °F 97% 29.99 in 2.5 mi NE 10.4 mph - N/A   Overcast
5:10 PM 43.0 °F 37.2 °F 42.1 °F 97% 29.99 in 2.0 mi NE 10.4 mph - N/A   Overcast
5:29 PM 43.0 °F 37.7 °F 42.1 °F 97% 29.99 in 4.0 mi ENE 9.2 mph - N/A   Overcast
5:53 PM 43.0 °F 37.2 °F 42.1 °F 97% 30.00 in 8.0 mi ENE 10.4 mph - N/A   Overcast
6:15 PM 44.1 °F 38.6 °F 42.1 °F 93% 29.99 in 9.0 mi NE 10.4 mph - N/A   Overcast
6:53 PM 43.0 °F 36.4 °F 42.1 °F 97% 30.01 in 8.0 mi NE 12.7 mph - N/A   Overcast
7:53 PM 43.0 °F 36.0 °F 42.1 °F 97% 30.01 in 10.0 mi NE 13.8 mph - N/A   Overcast
8:53 PM 43.0 °F 37.2 °F 42.1 °F 97% 30.03 in 7.0 mi NE 10.4 mph - 0.01 in   Overcast
9:43 PM 42.1 °F 34.9 °F 41.0 °F 96% 30.03 in 10.0 mi NE 13.8 mph - N/A   Overcast
9:53 PM 42.1 °F 35.7 °F 41.0 °F 96% 30.04 in 10.0 mi NE 11.5 mph - N/A   Overcast
10:42 PM 42.1 °F 34.9 °F 39.9 °F 92% 30.04 in 10.0 mi NE 13.8 mph - N/A   Overcast
10:53 PM 42.1 °F 35.2 °F 39.9 °F 92% 30.06 in 10.0 mi NE 12.7 mph - N/A   Overcast
11:53 PM 42.1 °F 35.2 °F 39.9 °F 92% 30.06 in 10.0 mi NE 12.7 mph - N/A   Overcast